sensor_id;sensor_type;location;lat;lon;timestamp;pressure;altitude;pressure_sealevel;temperature;humidity
8047;BME280;67150;42.516;23.358;2023-09-19T00:01:39;88928.47;;;18.61;58.18
8047;BME280;67150;42.516;23.358;2023-09-19T00:04:08;88925.91;;;18.61;58.26
8047;BME280;67150;42.516;23.358;2023-09-19T00:06:36;88923.38;;;18.61;58.44
8047;BME280;67150;42.516;23.358;2023-09-19T00:09:03;88925.16;;;18.61;58.23
8047;BME280;67150;42.516;23.358;2023-09-19T00:11:36;88921.09;;;18.58;58.39
8047;BME280;67150;42.516;23.358;2023-09-19T00:14:04;88914.94;;;18.61;58.56
8047;BME280;67150;42.516;23.358;2023-09-19T00:16:34;88921.09;;;18.58;58.35
8047;BME280;67150;42.516;23.358;2023-09-19T00:19:02;88916.81;;;18.59;58.43
8047;BME280;67150;42.516;23.358;2023-09-19T00:21:36;88916.00;;;18.58;58.37
8047;BME280;67150;42.516;23.358;2023-09-19T00:24:04;88909.16;;;18.59;58.51
8047;BME280;67150;42.516;23.358;2023-09-19T00:26:32;88910.91;;;18.58;58.39
8047;BME280;67150;42.516;23.358;2023-09-19T00:29:00;88910.25;;;18.56;58.36
8047;BME280;67150;42.516;23.358;2023-09-19T00:31:31;88902.88;;;18.53;58.38
8047;BME280;67150;42.516;23.358;2023-09-19T00:33:58;88904.34;;;18.56;58.58
8047;BME280;67150;42.516;23.358;2023-09-19T00:36:30;88902.59;;;18.56;58.38
8047;BME280;67150;42.516;23.358;2023-09-19T00:38:58;88905.31;;;18.55;58.39
8047;BME280;67150;42.516;23.358;2023-09-19T00:41:26;88907.06;;;18.54;57.96
8047;BME280;67150;42.516;23.358;2023-09-19T00:43:55;88907.19;;;18.53;58.25
8047;BME280;67150;42.516;23.358;2023-09-19T00:46:23;88908.00;;;18.53;58.10
8047;BME280;67150;42.516;23.358;2023-09-19T00:48:51;88902.09;;;18.53;58.19
8047;BME280;67150;42.516;23.358;2023-09-19T00:51:20;88906.41;;;18.52;57.99
8047;BME280;67150;42.516;23.358;2023-09-19T00:53:49;88896.97;;;18.53;58.04
8047;BME280;67150;42.516;23.358;2023-09-19T00:56:17;88895.41;;;18.52;58.05
8047;BME280;67150;42.516;23.358;2023-09-19T00:58:45;88897.13;;;18.51;58.06
8047;BME280;67150;42.516;23.358;2023-09-19T01:01:13;88901.44;;;18.51;57.94
8047;BME280;67150;42.516;23.358;2023-09-19T01:03:40;88892.44;;;18.46;58.07
8047;BME280;67150;42.516;23.358;2023-09-19T01:06:08;88896.50;;;18.49;58.00
8047;BME280;67150;42.516;23.358;2023-09-19T01:08:36;88895.69;;;18.49;58.06
8047;BME280;67150;42.516;23.358;2023-09-19T01:11:10;88890.69;;;18.47;57.93
8047;BME280;67150;42.516;23.358;2023-09-19T01:13:48;88891.47;;;18.47;58.06
8047;BME280;67150;42.516;23.358;2023-09-19T01:16:25;88893.22;;;18.47;58.03
8047;BME280;67150;42.516;23.358;2023-09-19T01:19:05;88897.69;;;18.45;57.98
8047;BME280;67150;42.516;23.358;2023-09-19T01:21:44;88893.53;;;18.44;57.98
8047;BME280;67150;42.516;23.358;2023-09-19T01:24:46;88899.44;;;18.44;58.00
8047;BME280;67150;42.516;23.358;2023-09-19T01:27:43;88891.94;;;18.43;58.14
8047;BME280;67150;42.516;23.358;2023-09-19T01:30:24;88890.31;;;18.42;58.15
8047;BME280;67150;42.516;23.358;2023-09-19T01:32:52;88892.06;;;18.41;57.85
8047;BME280;67150;42.516;23.358;2023-09-19T01:35:20;88886.31;;;18.39;57.73
8047;BME280;67150;42.516;23.358;2023-09-19T01:37:47;88884.56;;;18.40;57.93
8047;BME280;67150;42.516;23.358;2023-09-19T01:40:20;88885.50;;;18.39;57.81
8047;BME280;67150;42.516;23.358;2023-09-19T01:42:53;88883.91;;;18.38;57.83
8047;BME280;67150;42.516;23.358;2023-09-19T01:45:28;88878.78;;;18.38;57.87
8047;BME280;67150;42.516;23.358;2023-09-19T01:48:09;88877.84;;;18.39;57.99
8047;BME280;67150;42.516;23.358;2023-09-19T01:50:46;88870.38;;;18.37;57.89
8047;BME280;67150;42.516;23.358;2023-09-19T01:53:23;88870.50;;;18.36;58.07
8047;BME280;67150;42.516;23.358;2023-09-19T01:55:53;88871.28;;;18.36;57.97
8047;BME280;67150;42.516;23.358;2023-09-19T01:58:27;88873.97;;;18.35;57.92
8047;BME280;67150;42.516;23.358;2023-09-19T02:00:58;88876.53;;;18.35;57.95
8047;BME280;67150;42.516;23.358;2023-09-19T02:03:27;88869.84;;;18.34;58.06
8047;BME280;67150;42.516;23.358;2023-09-19T02:05:55;88866.50;;;18.33;57.94
8047;BME280;67150;42.516;23.358;2023-09-19T02:08:23;88869.03;;;18.33;57.99
8047;BME280;67150;42.516;23.358;2023-09-19T02:10:50;88864.88;;;18.32;57.92
8047;BME280;67150;42.516;23.358;2023-09-19T02:13:19;88864.06;;;18.32;57.90
8047;BME280;67150;42.516;23.358;2023-09-19T02:15:47;88867.59;;;18.31;57.80
8047;BME280;67150;42.516;23.358;2023-09-19T02:18:15;88872.69;;;18.31;57.86
8047;BME280;67150;42.516;23.358;2023-09-19T02:20:42;88870.13;;;18.31;57.75
8047;BME280;67150;42.516;23.358;2023-09-19T02:23:10;88871.06;;;18.30;58.04
8047;BME280;67150;42.516;23.358;2023-09-19T02:25:38;88872.69;;;18.31;57.86
8047;BME280;67150;42.516;23.358;2023-09-19T02:28:06;88860.63;;;18.23;57.93
8047;BME280;67150;42.516;23.358;2023-09-19T02:30:35;88873.78;;;18.28;58.03
8047;BME280;67150;42.516;23.358;2023-09-19T02:33:03;88868.00;;;18.26;58.04
8047;BME280;67150;42.516;23.358;2023-09-19T02:35:32;88867.06;;;18.27;58.06
8047;BME280;67150;42.516;23.358;2023-09-19T02:38:02;88873.78;;;18.28;57.94
8047;BME280;67150;42.516;23.358;2023-09-19T02:40:32;88862.91;;;18.26;57.87
8047;BME280;67150;42.516;23.358;2023-09-19T02:43:01;88863.88;;;18.25;57.95
8047;BME280;67150;42.516;23.358;2023-09-19T02:45:29;88855.41;;;18.25;57.95
8047;BME280;67150;42.516;23.358;2023-09-19T02:47:56;88857.97;;;18.25;57.88
8047;BME280;67150;42.516;23.358;2023-09-19T02:50:24;88837.03;;;18.21;57.77
8047;BME280;67150;42.516;23.358;2023-09-19T02:52:53;88846.16;;;18.24;57.98
8047;BME280;67150;42.516;23.358;2023-09-19T02:55:20;88841.03;;;18.24;57.77
8047;BME280;67150;42.516;23.358;2023-09-19T02:57:48;88829.25;;;18.23;57.92
8047;BME280;67150;42.516;23.358;2023-09-19T03:00:17;88842.00;;;18.23;57.94
8047;BME280;67150;42.516;23.358;2023-09-19T03:02:47;88831.13;;;18.21;58.02
8047;BME280;67150;42.516;23.358;2023-09-19T03:05:14;88826.03;;;18.21;57.94
8047;BME280;67150;42.516;23.358;2023-09-19T03:07:42;88831.13;;;18.21;58.02
8047;BME280;67150;42.516;23.358;2023-09-19T03:10:13;88833.69;;;18.21;57.93
8047;BME280;67150;42.516;23.358;2023-09-19T03:12:42;88833.69;;;18.21;58.11
8047;BME280;67150;42.516;23.358;2023-09-19T03:15:09;88822.66;;;18.20;57.95
8047;BME280;67150;42.516;23.358;2023-09-19T03:17:37;88824.44;;;18.20;58.01
8047;BME280;67150;42.516;23.358;2023-09-19T03:20:05;88820.94;;;18.21;58.09
8047;BME280;67150;42.516;23.358;2023-09-19T03:22:35;88827.94;;;18.19;58.08
8047;BME280;67150;42.516;23.358;2023-09-19T03:25:03;88825.50;;;18.17;58.05
8047;BME280;67150;42.516;23.358;2023-09-19T03:27:35;88816.94;;;18.18;58.00
8047;BME280;67150;42.516;23.358;2023-09-19T03:30:02;88821.38;;;18.16;58.01
8047;BME280;67150;42.516;23.358;2023-09-19T03:32:34;88834.13;;;18.16;57.78
8047;BME280;67150;42.516;23.358;2023-09-19T03:35:01;88828.22;;;18.16;57.83
8047;BME280;67150;42.516;23.358;2023-09-19T03:37:31;88831.72;;;18.15;58.02
8047;BME280;67150;42.516;23.358;2023-09-19T03:39:59;88837.78;;;18.14;58.17
8047;BME280;67150;42.516;23.358;2023-09-19T03:42:30;88835.22;;;18.14;58.17
8047;BME280;67150;42.516;23.358;2023-09-19T03:44:59;88836.97;;;18.13;58.28
8047;BME280;67150;42.516;23.358;2023-09-19T03:47:31;88835.22;;;18.14;58.28
8047;BME280;67150;42.516;23.358;2023-09-19T03:49:59;88828.50;;;18.13;58.18
8047;BME280;67150;42.516;23.358;2023-09-19T03:52:26;88822.59;;;18.12;58.18
8047;BME280;67150;42.516;23.358;2023-09-19T03:54:56;88825.31;;;18.11;58.36
8047;BME280;67150;42.516;23.358;2023-09-19T03:57:23;88823.53;;;18.11;58.36
8047;BME280;67150;42.516;23.358;2023-09-19T03:59:50;88820.34;;;18.09;58.41
8047;BME280;67150;42.516;23.358;2023-09-19T04:02:20;88818.59;;;18.10;58.60
8047;BME280;67150;42.516;23.358;2023-09-19T04:04:49;88818.59;;;18.10;58.49
8047;BME280;67150;42.516;23.358;2023-09-19T04:07:17;88816.34;;;18.07;58.50
8047;BME280;67150;42.516;23.358;2023-09-19T04:09:44;88814.88;;;18.04;58.49
8047;BME280;67150;42.516;23.358;2023-09-19T04:12:14;88824.78;;;18.07;58.59
8047;BME280;67150;42.516;23.358;2023-09-19T04:14:43;88824.78;;;18.07;58.67
8047;BME280;67150;42.516;23.358;2023-09-19T04:17:11;88825.59;;;18.08;58.73
8047;BME280;67150;42.516;23.358;2023-09-19T04:19:39;88837.53;;;18.07;58.59
8047;BME280;67150;42.516;23.358;2023-09-19T04:22:07;88841.03;;;18.06;58.45
8047;BME280;67150;42.516;23.358;2023-09-19T04:24:34;88844.53;;;18.05;58.56
8047;BME280;67150;42.516;23.358;2023-09-19T04:27:04;88846.28;;;18.05;58.41
8047;BME280;67150;42.516;23.358;2023-09-19T04:29:32;88842.94;;;18.04;58.56
8047;BME280;67150;42.516;23.358;2023-09-19T04:31:59;88839.56;;;18.04;58.52
8047;BME280;67150;42.516;23.358;2023-09-19T04:34:26;88841.19;;;18.05;58.36
8047;BME280;67150;42.516;23.358;2023-09-19T04:36:55;88849.78;;;18.04;58.48
8047;BME280;67150;42.516;23.358;2023-09-19T04:39:24;88848.16;;;18.03;58.83
8047;BME280;67150;42.516;23.358;2023-09-19T04:41:52;88845.63;;;18.03;58.95
8047;BME280;67150;42.516;23.358;2023-09-19T04:44:20;88847.47;;;18.28;59.32
8047;BME280;67150;42.516;23.358;2023-09-19T04:46:48;88844.91;;;18.28;59.60
8047;BME280;67150;42.516;23.358;2023-09-19T04:49:15;88850.88;;;18.19;59.34
8047;BME280;67150;42.516;23.358;2023-09-19T04:51:43;88844.63;;;18.13;59.43
8047;BME280;67150;42.516;23.358;2023-09-19T04:54:14;88840.75;;;18.09;59.41
8047;BME280;67150;42.516;23.358;2023-09-19T04:56:42;88850.28;;;18.07;59.37
8047;BME280;67150;42.516;23.358;2023-09-19T04:59:09;88840.09;;;18.07;59.40
8047;BME280;67150;42.516;23.358;2023-09-19T05:01:38;88836.09;;;18.05;59.38
8047;BME280;67150;42.516;23.358;2023-09-19T05:04:05;88836.09;;;18.05;59.23
8047;BME280;67150;42.516;23.358;2023-09-19T05:06:32;88838.78;;;18.03;59.31
8047;BME280;67150;42.516;23.358;2023-09-19T05:09:01;88830.31;;;18.03;59.34
8047;BME280;67150;42.516;23.358;2023-09-19T05:11:32;88830.19;;;18.04;59.42
8047;BME280;67150;42.516;23.358;2023-09-19T05:14:00;88827.75;;;18.03;59.36
8047;BME280;67150;42.516;23.358;2023-09-19T05:16:29;88829.38;;;18.04;59.37
8047;BME280;67150;42.516;23.358;2023-09-19T05:18:57;88827.75;;;18.03;59.36
8047;BME280;67150;42.516;23.358;2023-09-19T05:21:25;88829.53;;;18.02;59.41
8047;BME280;67150;42.516;23.358;2023-09-19T05:23:54;88826.19;;;18.02;59.56
8047;BME280;67150;42.516;23.358;2023-09-19T05:31:28;88821.19;;;17.82;59.80
8047;BME280;67150;42.516;23.358;2023-09-19T05:33:56;88818.81;;;17.81;59.95
8047;BME280;67150;42.516;23.358;2023-09-19T05:36:26;88819.31;;;17.84;60.16
8047;BME280;67150;42.516;23.358;2023-09-19T05:38:55;88818.22;;;17.87;60.20
8047;BME280;67150;42.516;23.358;2023-09-19T05:41:22;88819.81;;;17.88;60.20
8047;BME280;67150;42.516;23.358;2023-09-19T05:43:50;88820.00;;;18.22;61.32
8047;BME280;67150;42.516;23.358;2023-09-19T05:46:17;88808.03;;;18.22;61.04
8047;BME280;67150;42.516;23.358;2023-09-19T05:48:46;88815.41;;;18.08;60.34
8047;BME280;67150;42.516;23.358;2023-09-19T05:51:13;88817.84;;;18.00;60.50
8047;BME280;67150;42.516;23.358;2023-09-19T05:53:42;88817.84;;;18.00;60.78
8047;BME280;67150;42.516;23.358;2023-09-19T05:56:09;88814.38;;;18.01;60.30
8047;BME280;67150;42.516;23.358;2023-09-19T05:58:37;88815.00;;;18.03;60.38
8047;BME280;67150;42.516;23.358;2023-09-19T06:01:04;88808.34;;;18.02;60.43
8047;BME280;67150;42.516;23.358;2023-09-19T06:03:33;88806.44;;;18.04;60.36
8047;BME280;67150;42.516;23.358;2023-09-19T06:06:02;88798.13;;;18.02;60.24
8047;BME280;67150;42.516;23.358;2023-09-19T06:08:32;88805.50;;;18.05;60.34
8047;BME280;67150;42.516;23.358;2023-09-19T06:10:59;88805.19;;;18.08;60.26
8047;BME280;67150;42.516;23.358;2023-09-19T06:13:28;88806.94;;;18.07;60.26
8047;BME280;67150;42.516;23.358;2023-09-19T06:15:58;88804.25;;;18.09;60.26
8047;BME280;67150;42.516;23.358;2023-09-19T06:18:25;88771.53;;;17.86;60.31
8047;BME280;67150;42.516;23.358;2023-09-19T06:20:55;88802.38;;;18.11;60.32
8047;BME280;67150;42.516;23.358;2023-09-19T06:23:24;88803.47;;;18.08;60.25
8047;BME280;67150;42.516;23.358;2023-09-19T06:25:52;88805.28;;;18.16;60.12
8047;BME280;67150;42.516;23.358;2023-09-19T06:28:20;88805.28;;;18.16;60.64
8047;BME280;67150;42.516;23.358;2023-09-19T06:30:50;88798.25;;;18.18;60.81
8047;BME280;67150;42.516;23.358;2023-09-19T06:33:17;88801.63;;;18.18;60.78
8047;BME280;67150;42.516;23.358;2023-09-19T06:35:47;88793.16;;;18.18;60.79
8047;BME280;67150;42.516;23.358;2023-09-19T06:38:14;88796.53;;;18.18;60.58
8047;BME280;67150;42.516;23.358;2023-09-19T06:40:46;88797.03;;;18.22;60.64
8047;BME280;67150;42.516;23.358;2023-09-19T06:43:13;88800.53;;;18.21;60.82
8047;BME280;67150;42.516;23.358;2023-09-19T06:45:41;88806.31;;;18.23;60.83
8047;BME280;67150;42.516;23.358;2023-09-19T06:48:08;88804.53;;;18.23;60.56
8047;BME280;67150;42.516;23.358;2023-09-19T06:50:36;88805.03;;;18.27;60.45
8047;BME280;67150;42.516;23.358;2023-09-19T06:53:04;88798.50;;;18.24;60.72
8047;BME280;67150;42.516;23.358;2023-09-19T06:55:31;88800.88;;;18.26;60.35
8047;BME280;67150;42.516;23.358;2023-09-19T06:58:01;88802.78;;;18.24;60.49
8047;BME280;67150;42.516;23.358;2023-09-19T07:00:28;88804.03;;;18.20;60.69
8047;BME280;67150;42.516;23.358;2023-09-19T07:02:58;88806.31;;;18.23;60.54
8047;BME280;67150;42.516;23.358;2023-09-19T07:05:27;88809.84;;;18.30;60.36
8047;BME280;67150;42.516;23.358;2023-09-19T07:07:55;88803.59;;;18.24;60.49
8047;BME280;67150;42.516;23.358;2023-09-19T07:10:24;88807.59;;;18.27;60.25
8047;BME280;67150;42.516;23.358;2023-09-19T07:12:56;88805.84;;;18.27;60.36
8047;BME280;67150;42.516;23.358;2023-09-19T07:15:27;88811.47;;;18.31;60.35
8047;BME280;67150;42.516;23.358;2023-09-19T07:17:54;88808.16;;;18.38;59.87
8047;BME280;67150;42.516;23.358;2023-09-19T07:20:23;88811.16;;;18.34;59.99
8047;BME280;67150;42.516;23.358;2023-09-19T07:22:52;88815.97;;;18.37;59.88
8047;BME280;67150;42.516;23.358;2023-09-19T07:25:20;88808.69;;;18.42;59.87
8047;BME280;67150;42.516;23.358;2023-09-19T07:27:48;88810.44;;;18.41;59.83
8047;BME280;67150;42.516;23.358;2023-09-19T07:30:16;88810.94;;;18.45;59.62
8047;BME280;67150;42.516;23.358;2023-09-19T07:32:45;88797.75;;;18.32;59.75
8047;BME280;67150;42.516;23.358;2023-09-19T07:35:12;88804.91;;;18.46;60.02
8047;BME280;67150;42.516;23.358;2023-09-19T07:37:40;88802.47;;;18.44;61.28
8047;BME280;67150;42.516;23.358;2023-09-19T07:44:18;88732.72;;;17.75;61.55
8047;BME280;67150;42.516;23.358;2023-09-19T07:47:50;88817.72;;;18.19;61.45
8047;BME280;67150;42.516;23.358;2023-09-19T07:50:21;88772.19;;;17.88;61.32
8047;BME280;67150;42.516;23.358;2023-09-19T07:52:54;88817.84;;;18.17;61.50
8047;BME280;67150;42.516;23.358;2023-09-19T07:55:24;88828.88;;;18.18;61.47
8047;BME280;67150;42.516;23.358;2023-09-19T07:57:52;88777.16;;;17.90;61.27
8047;BME280;67150;42.516;23.358;2023-09-19T08:00:20;88778.25;;;17.87;61.38
8047;BME280;67150;42.516;23.358;2023-09-19T08:02:49;88772.75;;;17.82;61.23
8047;BME280;67150;42.516;23.358;2023-09-19T08:05:17;88777.28;;;17.88;61.48
8047;BME280;67150;42.516;23.358;2023-09-19T08:07:46;88828.22;;;18.16;61.46
8047;BME280;67150;42.516;23.358;2023-09-19T08:10:14;88793.09;;;17.92;61.47
8047;BME280;67150;42.516;23.358;2023-09-19T08:12:46;88778.53;;;17.84;61.43
8047;BME280;67150;42.516;23.358;2023-09-19T08:15:15;88788.94;;;17.91;61.55
8047;BME280;67150;42.516;23.358;2023-09-19T08:17:43;88784.41;;;17.85;61.59
8047;BME280;67150;42.516;23.358;2023-09-19T08:20:14;88780.94;;;17.86;61.53
8047;BME280;67150;42.516;23.358;2023-09-19T08:22:44;88808.47;;;18.00;61.49
8047;BME280;67150;42.516;23.358;2023-09-19T08:25:16;88833.31;;;18.16;61.54
8047;BME280;67150;42.516;23.358;2023-09-19T08:27:45;88786.31;;;17.83;61.52
8047;BME280;67150;42.516;23.358;2023-09-19T08:30:14;88781.22;;;17.83;61.69
8047;BME280;67150;42.516;23.358;2023-09-19T08:32:42;88776.94;;;17.83;61.59
8047;BME280;67150;42.516;23.358;2023-09-19T08:35:10;88801.50;;;18.02;61.30
8047;BME280;67150;42.516;23.358;2023-09-19T08:37:39;88769.91;;;17.85;61.69
8047;BME280;67150;42.516;23.358;2023-09-19T08:40:07;88811.09;;;18.08;61.55
8047;BME280;67150;42.516;23.358;2023-09-19T08:42:50;88783.19;;;17.89;61.81
8047;BME280;67150;42.516;23.358;2023-09-19T08:45:20;88790.19;;;17.87;61.62
8047;BME280;67150;42.516;23.358;2023-09-19T08:47:56;88817.72;;;18.19;61.73
8047;BME280;67150;42.516;23.358;2023-09-19T08:50:31;88822.84;;;18.19;61.54
8047;BME280;67150;42.516;23.358;2023-09-19T08:53:10;88820.28;;;18.19;61.89
8047;BME280;67150;42.516;23.358;2023-09-19T08:55:39;88824.25;;;18.49;62.66
8047;BME280;67150;42.516;23.358;2023-09-19T08:58:10;88804.69;;;18.39;62.90
8047;BME280;67150;42.516;23.358;2023-09-19T09:00:40;88821.38;;;18.69;62.87
8047;BME280;67150;42.516;23.358;2023-09-19T09:03:10;88816.63;;;18.57;62.65
8047;BME280;67150;42.516;23.358;2023-09-19T09:05:41;88812.75;;;18.70;62.62
8047;BME280;67150;42.516;23.358;2023-09-19T09:08:13;88814.94;;;18.47;63.32
8047;BME280;67150;42.516;23.358;2023-09-19T09:10:44;88808.94;;;18.49;63.29
8047;BME280;67150;42.516;23.358;2023-09-19T09:13:12;88810.28;;;18.43;63.17
8047;BME280;67150;42.516;23.358;2023-09-19T09:15:41;88808.16;;;18.38;63.08
8047;BME280;67150;42.516;23.358;2023-09-19T09:18:10;88812.75;;;18.35;62.99
8047;BME280;67150;42.516;23.358;2023-09-19T09:20:38;88808.63;;;18.34;62.86
8047;BME280;67150;42.516;23.358;2023-09-19T09:23:05;88804.63;;;18.31;62.99
8047;BME280;67150;42.516;23.358;2023-09-19T09:25:50;88801.56;;;18.28;63.00
8047;BME280;67150;42.516;23.358;2023-09-19T09:28:23;88803.44;;;18.26;63.05
8047;BME280;67150;42.516;23.358;2023-09-19T09:30:51;88806.94;;;18.25;63.13
8047;BME280;67150;42.516;23.358;2023-09-19T09:33:18;88809.63;;;18.23;63.12
8047;BME280;67150;42.516;23.358;2023-09-19T09:35:52;88805.50;;;18.22;63.13
8047;BME280;67150;42.516;23.358;2023-09-19T09:38:24;88799.59;;;18.22;63.21
8047;BME280;67150;42.516;23.358;2023-09-19T09:40:56;88794.47;;;18.22;63.38
8047;BME280;67150;42.516;23.358;2023-09-19T09:43:29;88799.72;;;18.20;63.66
8047;BME280;67150;42.516;23.358;2023-09-19T09:46:09;88801.63;;;18.18;64.52
8047;BME280;67150;42.516;23.358;2023-09-19T09:48:59;88796.97;;;18.14;64.96
8047;BME280;67150;42.516;23.358;2023-09-19T09:51:45;88801.91;;;18.15;64.92
8047;BME280;67150;42.516;23.358;2023-09-19T09:54:15;88801.09;;;18.15;65.37
8047;BME280;67150;42.516;23.358;2023-09-19T09:56:55;88792.53;;;18.16;64.83
8047;BME280;67150;42.516;23.358;2023-09-19T09:59:45;88796.81;;;18.15;65.00
8047;BME280;67150;42.516;23.358;2023-09-19T10:02:14;88793.47;;;18.15;65.30
8047;BME280;67150;42.516;23.358;2023-09-19T10:04:46;88791.88;;;18.14;65.50
8047;BME280;67150;42.516;23.358;2023-09-19T10:07:29;88782.38;;;18.06;65.47
8047;BME280;67150;42.516;23.358;2023-09-19T10:10:02;88798.72;;;18.13;65.51
8047;BME280;67150;42.516;23.358;2023-09-19T10:12:55;88795.19;;;18.14;66.17
8047;BME280;67150;42.516;23.358;2023-09-19T10:15:32;88791.72;;;18.15;66.89
8047;BME280;67150;42.516;23.358;2023-09-19T10:18:00;88790.78;;;18.16;66.75
8047;BME280;67150;42.516;23.358;2023-09-19T10:20:29;88792.22;;;18.19;66.57
8047;BME280;67150;42.516;23.358;2023-09-19T10:23:06;88790.63;;;18.18;66.51
8047;BME280;67150;42.516;23.358;2023-09-19T10:25:37;88782.97;;;18.18;66.80
8047;BME280;67150;42.516;23.358;2023-09-19T10:28:08;88789.03;;;18.17;66.72
8047;BME280;67150;42.516;23.358;2023-09-19T10:30:39;88783.63;;;18.20;66.34
8047;BME280;67150;42.516;23.358;2023-09-19T10:33:10;88788.75;;;18.20;66.39
8047;BME280;67150;42.516;23.358;2023-09-19T10:35:39;88789.50;;;18.20;66.49
8047;BME280;67150;42.516;23.358;2023-09-19T10:38:09;88777.72;;;18.19;66.89
8047;BME280;67150;42.516;23.358;2023-09-19T10:40:38;88778.53;;;18.20;67.09
8047;BME280;67150;42.516;23.358;2023-09-19T10:43:12;88775.03;;;18.21;67.22
8047;BME280;67150;42.516;23.358;2023-09-19T10:45:41;88784.28;;;18.22;66.99
8047;BME280;67150;42.516;23.358;2023-09-19T10:48:11;88774.09;;;18.22;66.69
8047;BME280;67150;42.516;23.358;2023-09-19T10:50:44;88783.34;;;18.23;66.93
8047;BME280;67150;42.516;23.358;2023-09-19T10:53:13;88782.38;;;18.24;66.92
8047;BME280;67150;42.516;23.358;2023-09-19T10:55:50;88784.13;;;18.23;66.80
8047;BME280;67150;42.516;23.358;2023-09-19T10:58:28;88773.78;;;18.25;66.82
8047;BME280;67150;42.516;23.358;2023-09-19T11:00:57;88778.88;;;18.25;67.17
8047;BME280;67150;42.516;23.358;2023-09-19T11:03:31;88780.47;;;18.26;66.88
8047;BME280;67150;42.516;23.358;2023-09-19T11:06:04;88773.16;;;18.23;66.24
8047;BME280;67150;42.516;23.358;2023-09-19T11:08:57;88777.78;;;18.27;65.83
8047;BME280;67150;42.516;23.358;2023-09-19T11:11:43;88771.88;;;18.27;65.98
8047;BME280;67150;42.516;23.358;2023-09-19T11:14:29;88775.25;;;18.27;66.29
8047;BME280;67150;42.516;23.358;2023-09-19T11:20:25;88765.16;;;18.26;66.63
8047;BME280;67150;42.516;23.358;2023-09-19T11:23:18;88777.63;;;18.29;66.32
8047;BME280;67150;42.516;23.358;2023-09-19T11:25:49;88774.31;;;18.28;66.31
8047;BME280;67150;42.516;23.358;2023-09-19T11:28:31;88772.53;;;18.29;66.54
8047;BME280;67150;42.516;23.358;2023-09-19T11:31:41;88763.00;;;18.31;66.47
8047;BME280;67150;42.516;23.358;2023-09-19T11:34:45;88762.03;;;18.32;66.39
8047;BME280;67150;42.516;23.358;2023-09-19T11:40:45;88759.63;;;18.30;66.08
8047;BME280;67150;42.516;23.358;2023-09-19T11:43:33;88750.25;;;18.31;66.39
8047;BME280;67150;42.516;23.358;2023-09-19T11:46:06;88741.63;;;18.32;66.80
8047;BME280;67150;42.516;23.358;2023-09-19T11:48:33;88743.22;;;18.33;67.29
8047;BME280;67150;42.516;23.358;2023-09-19T11:51:17;88738.78;;;18.35;67.23
8047;BME280;67150;42.516;23.358;2023-09-19T11:53:55;88736.09;;;18.36;67.14
8047;BME280;67150;42.516;23.358;2023-09-19T11:56:24;88736.91;;;18.37;67.14
8047;BME280;67150;42.516;23.358;2023-09-19T11:58:54;88730.19;;;18.36;67.17
8047;BME280;67150;42.516;23.358;2023-09-19T12:01:25;88726.69;;;18.37;66.64
8047;BME280;67150;42.516;23.358;2023-09-19T12:03:56;88732.44;;;18.39;66.36
8047;BME280;67150;42.516;23.358;2023-09-19T12:06:24;88725.88;;;18.36;66.27
8047;BME280;67150;42.516;23.358;2023-09-19T12:08:52;88732.44;;;18.39;65.94
8047;BME280;67150;42.516;23.358;2023-09-19T12:11:22;88727.19;;;18.40;65.39
8047;BME280;67150;42.516;23.358;2023-09-19T12:13:50;88723.84;;;18.40;65.32
8047;BME280;67150;42.516;23.358;2023-09-19T12:16:20;88723.03;;;18.39;65.28
8047;BME280;67150;42.516;23.358;2023-09-19T12:18:50;88723.03;;;18.39;66.05
8047;BME280;67150;42.516;23.358;2023-09-19T12:21:27;88722.88;;;18.41;66.36
8047;BME280;67150;42.516;23.358;2023-09-19T12:24:03;88722.75;;;18.42;66.73
8047;BME280;67150;42.516;23.358;2023-09-19T12:26:41;88727.03;;;18.42;66.22
8047;BME280;67150;42.516;23.358;2023-09-19T12:29:13;88721.94;;;18.42;66.09
8047;BME280;67150;42.516;23.358;2023-09-19T12:31:53;88721.78;;;18.43;66.35
8047;BME280;67150;42.516;23.358;2023-09-19T12:34:25;88718.44;;;18.43;66.45
8047;BME280;67150;42.516;23.358;2023-09-19T12:37:04;88718.44;;;18.43;66.24
8047;BME280;67150;42.516;23.358;2023-09-19T12:39:41;88713.19;;;18.44;65.74
8047;BME280;67150;42.516;23.358;2023-09-19T12:42:10;88710.78;;;18.43;65.94
8047;BME280;67150;42.516;23.358;2023-09-19T12:44:44;88707.28;;;18.44;66.30
8047;BME280;67150;42.516;23.358;2023-09-19T12:47:12;88704.59;;;18.45;66.63
8047;BME280;67150;42.516;23.358;2023-09-19T12:50:08;88706.03;;;18.48;66.86
8047;BME280;67150;42.516;23.358;2023-09-19T12:52:42;88712.78;;;18.49;67.52
8047;BME280;67150;42.516;23.358;2023-09-19T12:55:21;88711.81;;;18.50;67.29
8047;BME280;67150;42.516;23.358;2023-09-19T12:57:56;88704.97;;;18.51;67.69
8047;BME280;67150;42.516;23.358;2023-09-19T13:00:32;88695.56;;;18.51;67.74
8047;BME280;67150;42.516;23.358;2023-09-19T13:03:11;88704.66;;;18.54;67.55
8047;BME280;67150;42.516;23.358;2023-09-19T13:05:50;88697.00;;;18.54;66.89
8047;BME280;67150;42.516;23.358;2023-09-19T13:08:18;88695.25;;;18.54;66.64
8047;BME280;67150;42.516;23.358;2023-09-19T13:11:06;88689.03;;;18.57;66.17
8047;BME280;67150;42.516;23.358;2023-09-19T13:13:37;88693.03;;;18.59;66.42
8047;BME280;67150;42.516;23.358;2023-09-19T13:16:05;88692.91;;;18.61;66.67
8047;BME280;67150;42.516;23.358;2023-09-19T13:18:45;88689.03;;;18.57;66.40
8047;BME280;67150;42.516;23.358;2023-09-19T13:21:14;88687.63;;;18.62;66.12
8047;BME280;67150;42.516;23.358;2023-09-19T13:23:50;88692.59;;;18.64;66.28
8047;BME280;67150;42.516;23.358;2023-09-19T13:26:18;88690.69;;;18.66;66.34
8047;BME280;67150;42.516;23.358;2023-09-19T13:28:45;88689.88;;;18.65;65.87
8047;BME280;67150;42.516;23.358;2023-09-19T13:31:15;88695.63;;;18.67;65.81
8047;BME280;67150;42.516;23.358;2023-09-19T13:33:43;88688.78;;;18.68;65.99
8047;BME280;67150;42.516;23.358;2023-09-19T13:36:11;88683.53;;;18.69;65.23
8047;BME280;67150;42.516;23.358;2023-09-19T13:38:40;88683.53;;;18.69;65.74